Dades meteomassalio
Diari Summary for Juny 5, 2017 Units:  Metric    English   Both
« Previous Day
Next Day »
Diari Semanal Mensual Anual Personalitzat
  Maxima: Minima: Mijana:
Temperatura: 24.5 °C 12.8 °C 17.4 °C
Rosada: 14.3 °C 10.6 °C 12.1 °C
Humitat: 93 % 45 % 73 %
Velocitat del vent: 33.8 km/h 0.0 km/h 12.3 km/h
Racha vent: 33.8 km/h - -
Vent:- - WNW
Pressio: 1017.8 hPa 1012.8 hPa -
Pluja: 0.3 mm    
Historical Graphs
 
 
Tabular Data for Juny 5, 2017
Time Temperature Dew Point Pressure Wind Wind Speed Wind Gust Humidity Rainfall Rate (Hourly) solar Conditions
00:00 14.4 °C 13.3 °C 1016.8 hPa NW 16.7 km/h 16.7 km/h 93 % 0.0 mm 0.0 W/m2 RA
00:05 14.4 °C 13.3 °C 1016.5 hPa WNW 16.7 km/h 16.7 km/h 93 % 0.0 mm 0.0 W/m2 CLR
00:10 14.3 °C 13.2 °C 1016.5 hPa NW 22.2 km/h 22.2 km/h 93 % 0.0 mm 0.0 W/m2 CLR
00:15 14.3 °C 13.2 °C 1016.5 hPa NW 22.2 km/h 22.2 km/h 93 % 0.0 mm 0.0 W/m2 CLR
00:20 14.3 °C 13.2 °C 1016.5 hPa NW 22.2 km/h 22.2 km/h 93 % 0.0 mm 0.0 W/m2 CLR
00:25 14.3 °C 13.2 °C 1016.1 hPa NW 27.8 km/h 27.8 km/h 93 % 0.0 mm 0.0 W/m2 CLR
00:30 14.3 °C 13.2 °C 1016.5 hPa WNW 22.2 km/h 22.2 km/h 93 % 0.0 mm 0.0 W/m2 CLR
00:35 14.3 °C 13.2 °C 1016.5 hPa NNW 29.6 km/h 29.6 km/h 93 % 0.0 mm 0.0 W/m2 CLR
00:40 14.2 °C 13.1 °C 1016.5 hPa NNW 31.5 km/h 31.5 km/h 93 % 0.0 mm 0.0 W/m2 CLR
00:45 14.2 °C 12.9 °C 1016.5 hPa WNW 27.8 km/h 27.8 km/h 92 % 0.0 mm 0.0 W/m2 CLR
00:50 14.1 °C 12.8 °C 1016.8 hPa WNW 24.1 km/h 24.1 km/h 92 % 0.0 mm 0.0 W/m2 CLR
00:55 14.0 °C 12.7 °C 1016.5 hPa NNW 31.5 km/h 31.5 km/h 92 % 0.0 mm 0.0 W/m2 CLR
01:00 14.0 °C 12.7 °C 1016.8 hPa NW 22.2 km/h 22.2 km/h 92 % 0.0 mm 0.0 W/m2 CLR
01:05 13.9 °C 12.7 °C 1016.8 hPa WNW 22.5 km/h 22.5 km/h 92 % 0.0 mm 0.0 W/m2 CLR
01:10 13.9 °C 12.6 °C 1016.8 hPa WNW 29.6 km/h 29.6 km/h 92 % 0.0 mm 0.0 W/m2 CLR
01:15 13.8 °C 12.6 °C 1016.5 hPa WNW 25.9 km/h 25.9 km/h 92 % 0.0 mm 0.0 W/m2 CLR
01:20 13.7 °C 12.4 °C 1016.5 hPa WNW 20.4 km/h 20.4 km/h 92 % 0.0 mm 0.0 W/m2 CLR
01:25 13.7 °C 12.2 °C 1016.5 hPa WNW 22.2 km/h 22.2 km/h 91 % 0.0 mm 0.0 W/m2 CLR
01:30 13.6 °C 12.2 °C 1016.5 hPa WNW 27.8 km/h 27.8 km/h 91 % 0.0 mm 0.0 W/m2 CLR
01:35 13.6 °C 12.1 °C 1016.5 hPa NW 24.1 km/h 24.1 km/h 91 % 0.0 mm 0.0 W/m2 CLR
01:40 13.5 °C 12.1 °C 1016.5 hPa WNW 27.8 km/h 27.8 km/h 91 % 0.0 mm 0.0 W/m2 CLR
01:42 13.5 °C 12.1 °C 1016.5 hPa NNW 22.5 km/h 22.5 km/h 91 % 0.0 mm 0.0 W/m2 CLR
01:47 13.4 °C 12.0 °C 1016.5 hPa NW 29.6 km/h 29.6 km/h 91 % 0.0 mm 0.0 W/m2 CLR
01:52 13.4 °C 11.9 °C 1016.5 hPa WNW 27.8 km/h 27.8 km/h 91 % 0.0 mm 0.0 W/m2 CLR
01:53 13.4 °C 11.9 °C 1016.5 hPa NNW 27.4 km/h 27.4 km/h 91 % 0.0 mm 0.0 W/m2 CLR
01:58 13.4 °C 11.9 °C 1016.5 hPa NW 27.8 km/h 27.8 km/h 91 % 0.0 mm 0.0 W/m2 CLR
02:03 13.4 °C 11.9 °C 1016.5 hPa NNW 20.9 km/h 20.9 km/h 91 % 0.0 mm 0.0 W/m2 CLR
02:08 13.3 °C 11.9 °C 1016.5 hPa NW 25.9 km/h 25.9 km/h 91 % 0.0 mm 0.0 W/m2 CLR
02:13 13.3 °C 11.9 °C 1016.5 hPa NW 27.8 km/h 27.8 km/h 91 % 0.0 mm 0.0 W/m2 CLR
02:18 13.3 °C 11.7 °C 1016.5 hPa WNW 22.2 km/h 22.2 km/h 90 % 0.0 mm 0.0 W/m2 CLR
02:23 13.2 °C 11.6 °C 1016.5 hPa NW 33.8 km/h 33.8 km/h 90 % 0.0 mm 0.0 W/m2 CLR
02:28 13.2 °C 11.6 °C 1016.5 hPa WNW 33.8 km/h 33.8 km/h 90 % 0.0 mm 0.0 W/m2 CLR
02:33 13.1 °C 11.5 °C 1016.5 hPa WNW 30.6 km/h 30.6 km/h 90 % 0.0 mm 0.0 W/m2 CLR
02:38 13.1 °C 11.4 °C 1016.5 hPa West 25.9 km/h 25.9 km/h 90 % 0.0 mm 0.0 W/m2 CLR
02:43 13.1 °C 11.4 °C 1016.5 hPa West 33.3 km/h 33.3 km/h 90 % 0.0 mm 0.0 W/m2 CLR
02:48 13.1 °C 11.4 °C 1016.5 hPa WNW 31.5 km/h 31.5 km/h 90 % 0.0 mm 0.0 W/m2 CLR
02:53 13.1 °C 11.4 °C 1016.5 hPa WNW 19.3 km/h 19.3 km/h 90 % 0.0 mm 0.0 W/m2 CLR
02:58 13.0 °C 11.4 °C 1016.5 hPa NW 24.1 km/h 24.1 km/h 90 % 0.0 mm 0.0 W/m2 CLR
03:03 13.0 °C 11.4 °C 1016.8 hPa WNW 25.9 km/h 25.9 km/h 90 % 0.0 mm 0.0 W/m2 CLR
03:08 12.9 °C 11.3 °C 1016.8 hPa West 18.5 km/h 18.5 km/h 90 % 0.0 mm 0.0 W/m2 CLR
03:13 12.9 °C 11.3 °C 1016.8 hPa West 5.6 km/h   90 % 0.0 mm 0.0 W/m2 CLR
03:18 12.9 °C 11.4 °C 1016.8 hPa Calm     91 % 0.0 mm 0.0 W/m2 CLR
03:23 12.8 °C 11.4 °C 1016.8 hPa Calm     91 % 0.0 mm 0.0 W/m2 CLR
03:28 12.8 °C 11.2 °C 1016.8 hPa Calm     90 % 0.0 mm 0.0 W/m2 CLR
03:33 12.8 °C 11.2 °C 1016.8 hPa Calm     90 % 0.3 mm 0.0 W/m2 RA
03:38 12.8 °C 11.2 °C 1016.5 hPa Calm     90 % 0.3 mm 0.0 W/m2 CLR
03:43 12.9 °C 11.3 °C 1016.5 hPa Calm     90 % 0.3 mm 0.0 W/m2 CLR
03:48 12.9 °C 11.3 °C 1016.5 hPa Calm     90 % 0.3 mm 0.0 W/m2 CLR
03:53 12.9 °C 11.3 °C 1016.5 hPa WNW 9.3 km/h 9.3 km/h 90 % 0.3 mm 0.0 W/m2 CLR
03:58 12.9 °C 11.3 °C 1016.5 hPa Calm     90 % 0.3 mm 0.0 W/m2 CLR
04:03 12.9 °C 11.3 °C 1016.5 hPa Calm     90 % 0.3 mm 0.0 W/m2 CLR
04:08 12.9 °C 11.3 °C 1016.5 hPa Calm     90 % 0.3 mm 0.0 W/m2 CLR
04:10 12.9 °C 11.2 °C 1016.5 hPa West 11.1 km/h 11.1 km/h 89 % 0.3 mm 0.0 W/m2 CLR
04:15 12.9 °C 11.2 °C 1016.5 hPa Calm     89 % 0.3 mm 0.0 W/m2 CLR
04:20 13.0 °C 11.2 °C 1016.5 hPa WSW 5.6 km/h 5.6 km/h 89 % 0.3 mm 0.0 W/m2 CLR
04:25 13.0 °C 11.2 °C 1016.5 hPa West 7.4 km/h 7.4 km/h 89 % 0.3 mm 0.0 W/m2 CLR
04:30 13.0 °C 11.2 °C 1016.5 hPa West 18.5 km/h 18.5 km/h 89 % 0.3 mm 0.0 W/m2 CLR
04:35 13.0 °C 11.2 °C 1016.5 hPa NW 14.8 km/h 14.8 km/h 89 % 0.0 mm 0.0 W/m2 CLR
04:40 13.1 °C 11.1 °C 1016.1 hPa West 11.1 km/h 11.1 km/h 88 % 0.0 mm 0.0 W/m2 CLR
04:45 13.0 °C 11.1 °C 1016.1 hPa West 24.1 km/h 24.1 km/h 88 % 0.0 mm 0.0 W/m2 CLR
04:50 13.1 °C 11.1 °C 1016.5 hPa WNW 11.3 km/h 11.3 km/h 88 % 0.0 mm 0.0 W/m2 CLR
04:55 13.0 °C 11.1 °C 1016.5 hPa West 9.3 km/h 9.3 km/h 88 % 0.0 mm 0.0 W/m2 CLR
05:00 13.1 °C 11.1 °C 1016.5 hPa West 14.8 km/h 14.8 km/h 88 % 0.0 mm 0.0 W/m2 CLR
05:05 13.1 °C 11.1 °C 1016.5 hPa SW 17.7 km/h 17.7 km/h 88 % 0.0 mm 0.0 W/m2 CLR
05:10 13.1 °C 10.9 °C 1016.1 hPa West 20.4 km/h 20.4 km/h 87 % 0.0 mm 0.0 W/m2 CLR
05:15 13.1 °C 10.9 °C 1016.1 hPa West 9.7 km/h 9.7 km/h 87 % 0.0 mm 0.0 W/m2 CLR
05:20 13.1 °C 10.9 °C 1016.1 hPa WNW 33.3 km/h 33.3 km/h 87 % 0.0 mm 0.0 W/m2 CLR
05:25 13.0 °C 10.9 °C 1016.1 hPa WNW 22.2 km/h 22.2 km/h 87 % 0.0 mm 0.0 W/m2 CLR
05:30 13.0 °C 10.9 °C 1016.1 hPa NW 22.2 km/h 22.2 km/h 87 % 0.0 mm 0.0 W/m2 CLR
05:35 12.9 °C 10.8 °C 1016.1 hPa West 24.1 km/h 24.1 km/h 87 % 0.0 mm 0.0 W/m2 CLR
05:40 13.0 °C 10.9 °C 1016.1 hPa WNW 25.9 km/h 25.9 km/h 87 % 0.0 mm 0.0 W/m2 CLR
05:45 13.0 °C 10.9 °C 1016.1 hPa WNW 29.6 km/h 29.6 km/h 87 % 0.0 mm 0.0 W/m2 CLR
05:50 12.9 °C 10.7 °C 1015.8 hPa West 27.4 km/h 27.4 km/h 86 % 0.0 mm 0.0 W/m2 CLR
05:55 12.9 °C 10.7 °C 1015.8 hPa NW 22.2 km/h 22.2 km/h 86 % 0.0 mm 0.0 W/m2 CLR
06:00 12.9 °C 10.7 °C 1016.1 hPa WNW 20.4 km/h 20.4 km/h 86 % 0.0 mm 0.0 W/m2 CLR
06:05 12.9 °C 10.7 °C 1016.1 hPa WNW 27.8 km/h 27.8 km/h 86 % 0.0 mm 0.0 W/m2 CLR
06:06 12.9 °C 10.7 °C 1016.1 hPa West 18.5 km/h 18.5 km/h 86 % 0.0 mm 0.0 W/m2 CLR
06:11 13.0 °C 10.7 °C 1016.1 hPa WNW 24.1 km/h 24.1 km/h 86 % 0.0 mm 0.0 W/m2 CLR
06:16 13.0 °C 10.7 °C 1016.1 hPa West 18.5 km/h 18.5 km/h 86 % 0.0 mm 0.0 W/m2 CLR
06:21 13.0 °C 10.7 °C 1016.1 hPa West 22.2 km/h 22.2 km/h 86 % 0.0 mm 0.0 W/m2 OVC
06:26 13.0 °C 10.7 °C 1016.1 hPa West 22.2 km/h 22.2 km/h 86 % 0.0 mm 0.0 W/m2 OVC
06:31 13.0 °C 10.7 °C 1016.1 hPa WNW 22.2 km/h 22.2 km/h 86 % 0.0 mm 0.0 W/m2 OVC
06:36 13.0 °C 10.7 °C 1016.1 hPa WNW 22.2 km/h 22.2 km/h 86 % 0.0 mm 0.0 W/m2 OVC
06:41 13.0 °C 10.7 °C 1016.5 hPa West 13.0 km/h 13.0 km/h 86 % 0.0 mm 0.0 W/m2 OVC
06:46 13.0 °C 10.7 °C 1016.5 hPa WSW 14.5 km/h 14.5 km/h 86 % 0.0 mm 7.0 W/m2 BKN
06:51 13.0 °C 10.7 °C 1016.5 hPa West 7.4 km/h 7.4 km/h 86 % 0.0 mm 11.0 W/m2 BKN
06:56 13.0 °C 10.7 °C 1016.5 hPa West 16.7 km/h 16.7 km/h 86 % 0.0 mm 14.0 W/m2 BKN
07:01 13.0 °C 10.6 °C 1016.5 hPa West 9.3 km/h 9.3 km/h 85 % 0.0 mm 12.0 W/m2 BKN
07:06 13.1 °C 10.6 °C 1016.5 hPa West 16.7 km/h 16.7 km/h 85 % 0.0 mm 12.0 W/m2 BKN
07:11 13.1 °C 10.6 °C 1016.5 hPa West 5.6 km/h 5.6 km/h 85 % 0.0 mm 12.0 W/m2 BKN
07:16 13.1 °C 10.6 °C 1016.8 hPa West 14.8 km/h 14.8 km/h 85 % 0.0 mm 16.0 W/m2 BKN
07:21 13.1 °C 10.6 °C 1016.8 hPa WNW 20.4 km/h 20.4 km/h 85 % 0.0 mm 18.0 W/m2 BKN
07:26 13.1 °C 10.7 °C 1016.8 hPa WNW 5.6 km/h 5.6 km/h 85 % 0.0 mm 23.0 W/m2 BKN
07:31 13.1 °C 10.7 °C 1016.8 hPa WNW 5.6 km/h 5.6 km/h 85 % 0.0 mm 23.0 W/m2 BKN
07:36 13.1 °C 10.7 °C 1016.8 hPa West 3.7 km/h 3.7 km/h 85 % 0.0 mm 26.0 W/m2 BKN
07:41 13.1 °C 10.7 °C 1016.8 hPa West 12.9 km/h 12.9 km/h 85 % 0.0 mm 35.0 W/m2 BKN
07:46 13.1 °C 10.7 °C 1016.8 hPa WNW 9.7 km/h 9.7 km/h 85 % 0.0 mm 39.0 W/m2 BKN
07:51 13.1 °C 10.7 °C 1016.8 hPa WNW 5.6 km/h 5.6 km/h 85 % 0.0 mm 44.0 W/m2 BKN
07:52 13.2 °C 10.7 °C 1016.8 hPa WSW 3.2 km/h 3.2 km/h 85 % 0.0 mm 51.0 W/m2 BKN
07:57 13.2 °C 10.7 °C 1016.8 hPa West 25.9 km/h 25.9 km/h 85 % 0.0 mm 60.0 W/m2 SCT
08:02 13.2 °C 10.8 °C 1016.8 hPa WNW 20.4 km/h 20.4 km/h 85 % 0.0 mm 62.0 W/m2 SCT
08:07 13.2 °C 10.8 °C 1016.8 hPa WSW 24.1 km/h 24.1 km/h 85 % 0.0 mm 63.0 W/m2 SCT
08:12 13.3 °C 10.8 °C 1016.8 hPa WSW 13.0 km/h 13.0 km/h 85 % 0.0 mm 76.0 W/m2 FEW
08:17 13.3 °C 10.6 °C 1016.5 hPa West 20.4 km/h 20.4 km/h 84 % 0.0 mm 93.0 W/m2 FEW
08:22 13.3 °C 10.7 °C 1016.8 hPa WSW 24.1 km/h 24.1 km/h 84 % 0.0 mm 107.0 W/m2 CLR
08:27 13.4 °C 10.7 °C 1016.8 hPa WSW 24.1 km/h 24.1 km/h 84 % 0.0 mm 107.0 W/m2 CLR
08:32 13.4 °C 10.8 °C 1016.8 hPa West 20.4 km/h 20.4 km/h 84 % 0.0 mm 107.0 W/m2 CLR
08:37 13.5 °C 10.8 °C 1016.8 hPa NW 18.5 km/h 18.5 km/h 84 % 0.0 mm 111.0 W/m2 CLR
08:42 13.6 °C 10.7 °C 1016.8 hPa West 9.3 km/h 9.3 km/h 83 % 0.0 mm 116.0 W/m2 CLR
08:47 13.6 °C 10.8 °C 1016.8 hPa WNW 18.5 km/h 18.5 km/h 83 % 0.0 mm 113.0 W/m2 CLR
08:52 13.7 °C 10.8 °C 1017.2 hPa West 5.6 km/h 5.6 km/h 83 % 0.0 mm 107.0 W/m2 CLR
08:57 13.7 °C 10.9 °C 1017.2 hPa WNW 5.6 km/h   83 % 0.0 mm 97.0 W/m2 CLR
09:02 13.8 °C 11.1 °C 1017.2 hPa Calm   0.6 km/h 84 % 0.0 mm 90.0 W/m2 CLR
09:07 13.8 °C 11.0 °C 1017.2 hPa West 11.1 km/h 11.1 km/h 83 % 0.0 mm 88.0 W/m2 CLR
09:12 13.9 °C 11.1 °C 1017.2 hPa WNW 7.4 km/h 7.4 km/h 83 % 0.0 mm 100.0 W/m2 CLR
09:17 13.9 °C 11.1 °C 1017.5 hPa WSW 5.6 km/h 5.6 km/h 83 % 0.0 mm 123.0 W/m2 CLR
09:22 14.0 °C 11.2 °C 1017.5 hPa WNW 5.6 km/h   83 % 0.0 mm 134.0 W/m2 CLR
09:27 14.1 °C 11.3 °C 1017.5 hPa West 20.9 km/h 20.9 km/h 83 % 0.0 mm 151.0 W/m2 CLR
09:32 14.2 °C 11.1 °C 1017.5 hPa NW 11.1 km/h 11.1 km/h 82 % 0.0 mm 153.0 W/m2 CLR
09:37 14.3 °C 11.2 °C 1017.5 hPa West 8.0 km/h 8.0 km/h 82 % 0.0 mm 169.0 W/m2 CLR
09:42 14.4 °C 11.2 °C 1017.5 hPa West 9.3 km/h 9.3 km/h 81 % 0.0 mm 160.0 W/m2 CLR
09:47 14.5 °C 11.3 °C 1017.5 hPa WNW 7.4 km/h 7.4 km/h 81 % 0.0 mm 172.0 W/m2 CLR
09:52 14.6 °C 11.4 °C 1017.5 hPa West 16.7 km/h 16.7 km/h 81 % 0.0 mm 216.0 W/m2 CLR
09:57 14.8 °C 11.3 °C 1017.5 hPa West 18.5 km/h 18.5 km/h 80 % 0.0 mm 397.0 W/m2 CLR
10:02 14.9 °C 11.3 °C 1017.5 hPa West 25.9 km/h 25.9 km/h 79 % 0.0 mm 318.0 W/m2 CLR
10:07 15.1 °C 11.6 °C 1017.5 hPa WNW 18.5 km/h 18.5 km/h 80 % 0.0 mm 394.0 W/m2 CLR
10:12 15.3 °C 11.8 °C 1017.5 hPa WNW 16.1 km/h 16.1 km/h 80 % 0.0 mm 313.0 W/m2 CLR
10:17 15.4 °C 11.9 °C 1017.5 hPa WNW 24.1 km/h 24.1 km/h 80 % 0.0 mm 388.0 W/m2 CLR
10:22 15.4 °C 11.8 °C 1017.2 hPa WNW 20.4 km/h 20.4 km/h 79 % 0.0 mm 313.0 W/m2 CLR
10:27 15.6 °C 12.0 °C 1017.2 hPa WNW 29.0 km/h 29.0 km/h 79 % 0.0 mm 283.0 W/m2 CLR
10:32 15.6 °C 11.7 °C 1017.5 hPa WNW 19.3 km/h 19.3 km/h 78 % 0.0 mm 338.0 W/m2 CLR
10:37 15.7 °C 11.9 °C 1017.5 hPa West 18.5 km/h 18.5 km/h 78 % 0.0 mm 318.0 W/m2 CLR
10:42 15.8 °C 11.8 °C 1017.5 hPa West 20.9 km/h 20.9 km/h 77 % 0.0 mm 304.0 W/m2 CLR
10:47 15.8 °C 11.8 °C 1017.5 hPa NW 24.1 km/h 24.1 km/h 77 % 0.0 mm 341.0 W/m2 CLR
10:52 16.0 °C 12.2 °C 1017.5 hPa WNW 27.4 km/h 27.4 km/h 78 % 0.0 mm 404.0 W/m2 CLR
10:57 16.1 °C 11.9 °C 1017.5 hPa WNW 24.1 km/h 24.1 km/h 76 % 0.0 mm 373.0 W/m2 CLR
11:02 16.2 °C 12.0 °C 1017.5 hPa NW 25.9 km/h 25.9 km/h 76 % 0.0 mm 299.0 W/m2 CLR
11:08 16.2 °C 11.9 °C 1017.5 hPa NW 30.6 km/h 30.6 km/h 76 % 0.0 mm 255.0 W/m2 CLR
11:13 16.1 °C 11.9 °C 1017.5 hPa NNW 22.5 km/h 22.5 km/h 76 % 0.0 mm 211.0 W/m2 CLR
11:18 16.2 °C 12.0 °C 1017.8 hPa WNW 27.8 km/h 27.8 km/h 76 % 0.0 mm 251.0 W/m2 CLR
11:23 16.3 °C 12.2 °C 1017.8 hPa NW 22.2 km/h 22.2 km/h 77 % 0.0 mm 239.0 W/m2 CLR
11:28 16.3 °C 12.1 °C 1017.8 hPa NW 18.5 km/h 18.5 km/h 76 % 0.0 mm 234.0 W/m2 CLR
11:33 16.4 °C 12.2 °C 1017.8 hPa WNW 25.9 km/h 25.9 km/h 76 % 0.0 mm 251.0 W/m2 CLR
11:38 16.4 °C 11.9 °C 1017.8 hPa WNW 24.1 km/h 24.1 km/h 75 % 0.0 mm 234.0 W/m2 CLR
11:43 16.4 °C 11.9 °C 1017.8 hPa NNW 25.9 km/h 25.9 km/h 75 % 0.0 mm 237.0 W/m2 CLR
11:48 16.4 °C 12.0 °C 1017.8 hPa NNW 20.4 km/h 20.4 km/h 75 % 0.0 mm 211.0 W/m2 CLR
11:53 16.5 °C 11.8 °C 1017.8 hPa North 18.5 km/h 18.5 km/h 74 % 0.0 mm 292.0 W/m2 CLR
11:58 16.7 °C 12.0 °C 1017.8 hPa NW 16.7 km/h 16.7 km/h 74 % 0.0 mm 306.0 W/m2 CLR
12:03 16.8 °C 12.2 °C 1017.5 hPa NW 20.4 km/h 20.4 km/h 74 % 0.0 mm 290.0 W/m2 CLR
12:08 16.9 °C 12.3 °C 1017.5 hPa West 9.3 km/h 9.3 km/h 74 % 0.0 mm 427.0 W/m2 CLR
12:13 17.2 °C 12.3 °C 1017.5 hPa NW 9.3 km/h 9.3 km/h 73 % 0.0 mm 489.0 W/m2 CLR
12:18 17.4 °C 12.3 °C 1017.5 hPa NW 18.5 km/h 18.5 km/h 72 % 0.0 mm 362.0 W/m2 CLR
12:23 17.5 °C 12.4 °C 1017.2 hPa WNW 14.8 km/h 14.8 km/h 72 % 0.0 mm 394.0 W/m2 CLR
12:28 17.7 °C 12.8 °C 1017.2 hPa WNW 14.8 km/h 14.8 km/h 73 % 0.0 mm 427.0 W/m2 CLR
12:33 17.9 °C 12.6 °C 1017.2 hPa West 18.5 km/h 18.5 km/h 71 % 0.0 mm 487.0 W/m2 CLR
12:38 17.8 °C 12.4 °C 1017.2 hPa WSW 20.4 km/h 20.4 km/h 71 % 0.0 mm 385.0 W/m2 CLR
12:43 17.7 °C 12.4 °C 1017.2 hPa WNW 7.4 km/h 7.4 km/h 71 % 0.0 mm 374.0 W/m2 CLR
12:48 17.9 °C 12.6 °C 1017.2 hPa NW 13.0 km/h 13.0 km/h 71 % 0.0 mm 418.0 W/m2 CLR
12:53 18.2 °C 12.6 °C 1017.2 hPa NW 20.4 km/h 20.4 km/h 70 % 0.0 mm 580.0 W/m2 CLR
12:58 18.4 °C 12.8 °C 1016.8 hPa NW 18.5 km/h 18.5 km/h 70 % 0.0 mm 499.0 W/m2 CLR
13:03 18.4 °C 12.6 °C 1016.8 hPa West 18.5 km/h 18.5 km/h 69 % 0.0 mm 508.0 W/m2 CLR
13:08 18.5 °C 12.7 °C 1016.8 hPa WNW 17.7 km/h 17.7 km/h 69 % 0.0 mm 589.0 W/m2 CLR
13:13 18.6 °C 12.6 °C 1016.8 hPa WNW 11.1 km/h 11.1 km/h 68 % 0.0 mm 571.0 W/m2 CLR
13:18 18.8 °C 12.8 °C 1016.8 hPa NW 20.4 km/h 20.4 km/h 68 % 0.0 mm 766.0 W/m2 CLR
13:23 19.1 °C 12.8 °C 1016.5 hPa WNW 18.5 km/h 18.5 km/h 67 % 0.0 mm 624.0 W/m2 CLR
13:24 19.1 °C 12.6 °C 1016.5 hPa WNW 9.3 km/h 9.3 km/h 66 % 0.0 mm 686.0 W/m2 CLR
13:29 19.3 °C 13.1 °C 1016.5 hPa NW 18.5 km/h 18.5 km/h 67 % 0.0 mm 642.0 W/m2 CLR
13:44 19.7 °C 13.2 °C 1016.1 hPa WNW 9.3 km/h 9.3 km/h 66 % 0.0 mm 499.0 W/m2 CLR
13:49 19.9 °C 12.9 °C 1016.1 hPa West 5.6 km/h 5.6 km/h 64 % 0.0 mm 870.0 W/m2 CLR
13:54 19.9 °C 13.3 °C 1016.1 hPa WNW 7.4 km/h 7.4 km/h 66 % 0.0 mm 642.0 W/m2 CLR
13:59 20.2 °C 13.4 °C 1016.1 hPa WNW 7.4 km/h 7.4 km/h 65 % 0.0 mm 1174.0 W/m2 CLR
14:04 20.2 °C 13.2 °C 1016.1 hPa Calm     64 % 0.0 mm 1125.0 W/m2 CLR
14:09 20.6 °C 13.3 °C 1016.1 hPa WNW 14.8 km/h 14.8 km/h 63 % 0.0 mm 1053.0 W/m2 CLR
14:14 20.6 °C 13.1 °C 1016.1 hPa WSW 13.0 km/h 13.0 km/h 62 % 0.0 mm 1236.0 W/m2 CLR
14:19 20.7 °C 13.2 °C 1015.8 hPa Calm     62 % 0.0 mm 376.0 W/m2 CLR
14:24 20.8 °C 13.5 °C 1015.8 hPa NNW 7.4 km/h 7.4 km/h 63 % 0.0 mm 353.0 W/m2 CLR
14:29 20.6 °C 13.3 °C 1015.8 hPa WNW 22.2 km/h 22.2 km/h 63 % 0.0 mm 302.0 W/m2 CLR
14:34 20.2 °C 12.9 °C 1015.8 hPa WNW 11.1 km/h 11.1 km/h 63 % 0.0 mm 278.0 W/m2 CLR
14:39 20.4 °C 13.7 °C 1015.8 hPa NW 18.5 km/h 18.5 km/h 65 % 0.0 mm 1158.0 W/m2 CLR
14:44 20.4 °C 13.2 °C 1015.8 hPa WNW 9.7 km/h 9.7 km/h 63 % 0.0 mm 364.0 W/m2 CLR
14:49 20.8 °C 13.9 °C 1015.8 hPa WNW 14.8 km/h 14.8 km/h 65 % 0.0 mm 1151.0 W/m2 CLR
14:54 20.8 °C 13.5 °C 1015.8 hPa NW 13.0 km/h 13.0 km/h 63 % 0.0 mm 276.0 W/m2 CLR
14:59 20.7 °C 13.2 °C 1015.8 hPa NNW 7.4 km/h 7.4 km/h 62 % 0.0 mm 1083.0 W/m2 CLR
15:04 21.1 °C 13.3 °C 1015.8 hPa WNW 22.2 km/h 22.2 km/h 61 % 0.0 mm 1046.0 W/m2 CLR
15:09 21.4 °C 13.6 °C 1015.8 hPa NNW 20.4 km/h 20.4 km/h 61 % 0.0 mm 1027.0 W/m2 CLR
15:10 21.4 °C 13.6 °C 1015.8 hPa West 20.4 km/h 20.4 km/h 61 % 0.0 mm 1018.0 W/m2 CLR
15:15 21.7 °C 14.3 °C 1015.5 hPa WSW 19.3 km/h 19.3 km/h 63 % 0.0 mm 1013.0 W/m2 CLR
15:20 21.7 °C 13.1 °C 1015.5 hPa West 16.7 km/h 16.7 km/h 58 % 0.0 mm 979.0 W/m2 CLR
15:25 21.9 °C 13.8 °C 1015.5 hPa WNW 11.3 km/h 11.3 km/h 60 % 0.0 mm 1009.0 W/m2 CLR
15:30 22.1 °C 13.4 °C 1015.1 hPa WSW 7.4 km/h 7.4 km/h 58 % 0.0 mm 1020.0 W/m2 CLR
15:31 22.1 °C 13.2 °C 1015.5 hPa WNW 9.3 km/h 9.3 km/h 57 % 0.0 mm 995.0 W/m2 CLR
15:36 22.3 °C 13.3 °C 1015.5 hPa West 5.6 km/h 5.6 km/h 57 % 0.0 mm 1046.0 W/m2 CLR
15:41 22.3 °C 13.6 °C 1015.1 hPa NNW 7.4 km/h 7.4 km/h 58 % 0.0 mm 965.0 W/m2 CLR
15:46 22.2 °C 12.7 °C 1015.1 hPa Calm     55 % 0.0 mm 227.0 W/m2 CLR
15:51 21.9 °C 13.6 °C 1015.1 hPa West 7.4 km/h 7.4 km/h 59 % 0.0 mm 668.0 W/m2 CLR
15:56 21.8 °C 13.2 °C 1015.1 hPa North 5.6 km/h 5.6 km/h 58 % 0.0 mm 726.0 W/m2 CLR
16:01 22.1 °C 13.2 °C 1014.8 hPa Calm     57 % 0.0 mm 893.0 W/m2 CLR
16:06 22.7 °C 14.0 °C 1014.8 hPa WNW 11.1 km/h 11.1 km/h 58 % 0.0 mm 886.0 W/m2 CLR
16:11 22.8 °C 13.8 °C 1014.8 hPa Calm     57 % 0.0 mm 879.0 W/m2 CLR
16:16 22.7 °C 12.7 °C 1014.8 hPa Calm     53 % 0.0 mm 942.0 W/m2 CLR
16:21 22.6 °C 12.6 °C 1014.8 hPa Calm     53 % 0.0 mm 918.0 W/m2 CLR
16:26 22.9 °C 13.7 °C 1014.8 hPa NW 13.0 km/h 13.0 km/h 56 % 0.0 mm 916.0 W/m2 CLR
16:31 22.8 °C 13.0 °C 1014.4 hPa North 1.9 km/h 1.9 km/h 54 % 0.0 mm 171.0 W/m2 CLR
16:36 22.7 °C 12.9 °C 1014.4 hPa Calm     54 % 0.0 mm 213.0 W/m2 CLR
16:41 22.7 °C 13.2 °C 1014.4 hPa Calm     55 % 0.0 mm 253.0 W/m2 CLR
16:46 22.8 °C 12.7 °C 1014.1 hPa Calm     53 % 0.0 mm 923.0 W/m2 CLR
16:51 23.2 °C 13.3 °C 1014.1 hPa Calm     54 % 0.0 mm 921.0 W/m2 CLR
16:56 23.6 °C 13.4 °C 1014.1 hPa West 9.7 km/h 9.7 km/h 53 % 0.0 mm 898.0 W/m2 CLR
17:01 23.7 °C 12.9 °C 1014.1 hPa NW 3.7 km/h 3.7 km/h 51 % 0.0 mm 877.0 W/m2 CLR
17:06 23.7 °C 12.7 °C 1014.1 hPa West 14.5 km/h 14.5 km/h 50 % 0.0 mm 823.0 W/m2 CLR
17:11 23.6 °C 13.2 °C 1014.1 hPa NW 16.7 km/h 16.7 km/h 52 % 0.0 mm 786.0 W/m2 CLR
17:16 23.7 °C 12.6 °C 1014.1 hPa WNW 13.0 km/h 13.0 km/h 50 % 0.0 mm 752.0 W/m2 CLR
17:21 23.8 °C 13.3 °C 1014.1 hPa WNW 7.4 km/h 7.4 km/h 52 % 0.0 mm 717.0 W/m2 CLR
17:26 23.8 °C 13.4 °C 1014.1 hPa Calm     52 % 0.0 mm 686.0 W/m2 CLR
17:31 24.1 °C 12.4 °C 1014.1 hPa WNW 16.7 km/h 16.7 km/h 48 % 0.0 mm 666.0 W/m2 CLR
17:32 24.0 °C 12.3 °C 1014.1 hPa West 17.7 km/h 17.7 km/h 48 % 0.0 mm 666.0 W/m2 CLR
17:37 23.7 °C 12.6 °C 1014.1 hPa West 11.3 km/h 11.3 km/h 50 % 0.0 mm 656.0 W/m2 CLR
17:42 23.3 °C 12.6 °C 1014.1 hPa NW 9.7 km/h 9.7 km/h 51 % 0.0 mm 174.0 W/m2 CLR
17:47 23.3 °C 12.3 °C 1013.8 hPa Calm     50 % 0.0 mm 689.0 W/m2 CLR
17:52 23.7 °C 13.5 °C 1013.8 hPa NNE 14.8 km/h 14.8 km/h 53 % 0.0 mm 642.0 W/m2 CLR
17:57 23.7 °C 12.9 °C 1013.8 hPa NNW 9.3 km/h 9.3 km/h 51 % 0.0 mm 578.0 W/m2 CLR
18:02 23.8 °C 12.4 °C 1013.8 hPa WNW 9.7 km/h 9.7 km/h 49 % 0.0 mm 578.0 W/m2 CLR
18:07 23.9 °C 12.5 °C 1013.8 hPa WSW 5.6 km/h 5.6 km/h 49 % 0.0 mm 555.0 W/m2 CLR
18:12 23.9 °C 12.8 °C 1013.4 hPa North 5.6 km/h 5.6 km/h 50 % 0.0 mm 536.0 W/m2 CLR
18:17 23.9 °C 11.9 °C 1013.4 hPa NW 5.6 km/h   47 % 0.0 mm 510.0 W/m2 CLR
18:22 23.9 °C 12.9 °C 1013.4 hPa Calm     50 % 0.0 mm 492.0 W/m2 CLR
18:27 24.1 °C 12.4 °C 1013.4 hPa Calm     48 % 0.0 mm 492.0 W/m2 CLR
18:32 24.2 °C 12.8 °C 1013.1 hPa NW 13.0 km/h 13.0 km/h 49 % 0.0 mm 225.0 W/m2 CLR
18:37 24.1 °C 13.0 °C 1013.1 hPa NW 16.7 km/h 16.7 km/h 50 % 0.0 mm 446.0 W/m2 CLR
18:42 24.0 °C 13.2 °C 1013.1 hPa WNW 7.4 km/h 7.4 km/h 51 % 0.0 mm 431.0 W/m2 CLR
18:47 24.2 °C 12.4 °C 1013.1 hPa Calm     48 % 0.0 mm 413.0 W/m2 CLR
18:48 24.2 °C 12.8 °C 1013.1 hPa Calm     49 % 0.0 mm 410.0 W/m2 CLR
18:53 24.5 °C 12.8 °C 1013.1 hPa NW 6.4 km/h 6.4 km/h 48 % 0.0 mm 397.0 W/m2 CLR
18:58 24.5 °C 12.4 °C 1013.1 hPa NW 11.3 km/h 11.3 km/h 47 % 0.0 mm 383.0 W/m2 CLR
19:03 24.3 °C 12.6 °C 1013.1 hPa West 7.4 km/h 7.4 km/h 48 % 0.0 mm 371.0 W/m2 CLR
19:08 24.3 °C 12.2 °C 1013.1 hPa NNW 3.2 km/h 3.2 km/h 47 % 0.0 mm 350.0 W/m2 CLR
19:13 24.4 °C 13.1 °C 1013.1 hPa Calm     49 % 0.0 mm 334.0 W/m2 CLR
19:18 24.5 °C 12.8 °C 1013.1 hPa Calm     48 % 0.0 mm 320.0 W/m2 CLR
19:28 24.3 °C 12.2 °C 1013.1 hPa North 5.6 km/h   47 % 0.0 mm 287.0 W/m2 CLR
19:33 24.3 °C 12.2 °C 1013.1 hPa Calm     47 % 0.0 mm 267.0 W/m2 CLR
19:38 24.2 °C 12.5 °C 1013.1 hPa Calm     48 % 0.0 mm 257.0 W/m2 CLR
19:43 24.2 °C 11.9 °C 1013.1 hPa Calm     46 % 0.0 mm 216.0 W/m2 CLR
19:48 24.3 °C 12.2 °C 1013.1 hPa North 9.3 km/h 9.3 km/h 47 % 0.0 mm 216.0 W/m2 CLR
19:53 24.1 °C 11.8 °C 1013.1 hPa Calm     46 % 0.0 mm 199.0 W/m2 CLR
19:58 23.9 °C 11.9 °C 1013.1 hPa WNW 5.6 km/h 5.6 km/h 47 % 0.0 mm 176.0 W/m2 CLR
20:03 23.9 °C 11.3 °C 1013.1 hPa Calm     45 % 0.0 mm 123.0 W/m2 CLR
20:08 24.0 °C 12.0 °C 1013.1 hPa WNW 5.6 km/h 5.6 km/h 47 % 0.0 mm 111.0 W/m2 CLR
20:13 23.8 °C 11.1 °C 1013.1 hPa NNW 7.4 km/h 7.4 km/h 45 % 0.0 mm 81.0 W/m2 CLR
20:18 23.6 °C 11.6 °C 1013.1 hPa Calm     47 % 0.0 mm 128.0 W/m2 CLR
20:23 23.6 °C 11.9 °C 1013.1 hPa Calm     48 % 0.0 mm 118.0 W/m2 CLR
20:24 23.6 °C 11.9 °C 1013.1 hPa Calm     48 % 0.0 mm 114.0 W/m2 CLR
20:29 23.7 °C 11.4 °C 1013.1 hPa Calm     46 % 0.0 mm 88.0 W/m2 CLR
20:34 23.7 °C 11.7 °C 1013.1 hPa Calm     47 % 0.0 mm 86.0 W/m2 CLR
20:39 23.4 °C 11.8 °C 1012.8 hPa Calm     48 % 0.0 mm 62.0 W/m2 SCT
20:44 23.1 °C 11.8 °C 1012.8 hPa Calm     49 % 0.0 mm 44.0 W/m2 BKN
20:49 22.9 °C 11.9 °C 1012.8 hPa Calm     50 % 0.0 mm 35.0 W/m2 BKN
20:54 22.8 °C 12.7 °C 1012.8 hPa Calm     53 % 0.0 mm 28.0 W/m2 BKN
21:04 22.2 °C 13.2 °C 1012.8 hPa Calm     57 % 0.0 mm 19.0 W/m2 BKN
21:09 21.7 °C 12.3 °C 1012.8 hPa Calm     55 % 0.0 mm 16.0 W/m2 BKN
21:14 21.5 °C 11.8 °C 1013.1 hPa Calm     54 % 0.0 mm 12.0 W/m2 BKN
21:19 21.3 °C 11.9 °C 1013.1 hPa Calm     55 % 0.0 mm 11.0 W/m2 BKN
21:24 21.2 °C 11.8 °C 1013.1 hPa Calm     55 % 0.0 mm 7.0 W/m2 BKN
21:29 21.0 °C 11.9 °C 1013.1 hPa Calm     56 % 0.0 mm 5.0 W/m2 OVC
21:34 20.9 °C 12.3 °C 1013.1 hPa Calm     58 % 0.0 mm 0.0 W/m2 OVC
21:39 20.7 °C 12.4 °C 1013.1 hPa Calm     59 % 0.0 mm 0.0 W/m2 CLR
21:44 20.6 °C 12.5 °C 1013.1 hPa Calm     60 % 0.0 mm 0.0 W/m2 CLR
21:49 20.3 °C 13.6 °C 1013.1 hPa Calm     65 % 0.0 mm 0.0 W/m2 CLR
21:54 19.9 °C 13.6 °C 1013.1 hPa Calm     67 % 0.0 mm 0.0 W/m2 CLR
21:59 19.5 °C 13.7 °C 1013.1 hPa Calm     69 % 0.0 mm 0.0 W/m2 CLR
22:04 19.2 °C 13.6 °C 1013.1 hPa Calm     70 % 0.0 mm 0.0 W/m2 CLR
22:09 18.8 °C 13.0 °C 1013.1 hPa Calm     69 % 0.0 mm 0.0 W/m2 CLR
22:14 18.7 °C 13.1 °C 1013.1 hPa Calm     70 % 0.0 mm 0.0 W/m2 CLR
22:19 18.4 °C 13.1 °C 1013.4 hPa Calm     71 % 0.0 mm 0.0 W/m2 CLR
22:24 18.3 °C 13.6 °C 1013.4 hPa Calm     74 % 0.0 mm 0.0 W/m2 CLR
22:29 17.9 °C 13.6 °C 1013.4 hPa Calm     76 % 0.0 mm 0.0 W/m2 CLR
22:34 17.6 °C 12.9 °C 1013.8 hPa Calm     74 % 0.0 mm 0.0 W/m2 CLR
22:39 17.4 °C 13.4 °C 1013.8 hPa Calm     77 % 0.0 mm 0.0 W/m2 CLR
22:44 17.2 °C 13.3 °C 1013.8 hPa Calm     78 % 0.0 mm 0.0 W/m2 CLR
22:49 16.9 °C 13.3 °C 1013.8 hPa Calm     79 % 0.0 mm 0.0 W/m2 CLR
22:54 16.7 °C 13.3 °C 1013.8 hPa Calm     80 % 0.0 mm 0.0 W/m2 CLR
22:59 16.6 °C 13.1 °C 1013.8 hPa Calm     80 % 0.0 mm 0.0 W/m2 CLR
23:04 16.4 °C 13.0 °C 1013.4 hPa Calm     80 % 0.0 mm 0.0 W/m2 CLR
23:09 16.4 °C 13.1 °C 1013.4 hPa Calm     81 % 0.0 mm 0.0 W/m2 CLR
23:14 16.3 °C 13.2 °C 1013.4 hPa Calm     82 % 0.0 mm 0.0 W/m2 CLR
23:19 16.1 °C 13.1 °C 1013.4 hPa Calm     82 % 0.0 mm 0.0 W/m2 CLR
23:24 15.9 °C 13.1 °C 1013.4 hPa Calm     83 % 0.0 mm 0.0 W/m2 CLR
23:29 15.8 °C 12.9 °C 1013.4 hPa Calm     83 % 0.0 mm 0.0 W/m2 CLR
23:34 15.9 °C 12.7 °C 1013.4 hPa Calm     81 % 0.0 mm 0.0 W/m2 CLR
23:39 16.2 °C 12.8 °C 1013.4 hPa Calm     80 % 0.0 mm 0.0 W/m2 CLR
23:44 16.3 °C 12.8 °C 1013.4 hPa Calm     80 % 0.0 mm 0.0 W/m2 CLR
23:49 16.2 °C 12.6 °C 1013.4 hPa Calm     79 % 0.0 mm 0.0 W/m2 CLR
23:54 16.2 °C 12.8 °C 1013.4 hPa Calm     80 % 0.0 mm 0.0 W/m2 CLR
23:59 16.0 °C 12.7 °C 1013.1 hPa Calm     81 % 0.0 mm 0.0 W/m2 CLR
Lo Temps de Massalio
Compliments of Weather Underground - 1.25 mb